createdAt,value
2023-01-28T00:01:46.803Z,1.00
2023-01-28T00:04:16.548Z,1.00
2023-01-28T00:06:44.558Z,1.00
2023-01-28T00:09:13.256Z,1.00
2023-01-28T00:11:41.230Z,0.90
2023-01-28T00:14:09.321Z,0.90
2023-01-28T00:16:37.321Z,0.90
2023-01-28T00:19:05.464Z,1.00
2023-01-28T00:21:35.239Z,0.90
2023-01-28T00:24:03.338Z,1.00
2023-01-28T00:26:31.298Z,1.00
2023-01-28T00:28:59.218Z,1.00
2023-01-28T00:31:28.292Z,1.00
2023-01-28T00:33:57.756Z,1.00
2023-01-28T00:36:27.310Z,1.00
2023-01-28T00:38:58.739Z,0.90
2023-01-28T00:41:28.734Z,0.90
2023-01-28T00:43:59.705Z,1.00
2023-01-28T00:46:27.930Z,1.00
2023-01-28T00:48:55.962Z,0.90
2023-01-28T00:51:24.215Z,1.00
2023-01-28T00:53:52.959Z,0.90
2023-01-28T00:56:22.292Z,1.00
2023-01-28T00:58:50.428Z,1.00
2023-01-28T01:01:21.674Z,1.10
2023-01-28T01:03:57.384Z,1.10
2023-01-28T01:06:26.436Z,1.20
2023-01-28T01:08:54.373Z,1.10
2023-01-28T01:11:24.756Z,1.10
2023-01-28T01:13:54.913Z,1.10
2023-01-28T01:16:24.197Z,1.10
2023-01-28T01:18:52.965Z,1.00
2023-01-28T01:21:22.703Z,1.10
2023-01-28T01:23:50.914Z,1.00
2023-01-28T01:26:19.344Z,1.00
2023-01-28T01:28:49.092Z,1.10
2023-01-28T01:31:18.684Z,1.00
2023-01-28T01:33:48.833Z,1.00
2023-01-28T01:36:19.585Z,1.10
2023-01-28T01:38:47.696Z,1.10
2023-01-28T01:41:24.596Z,1.10
2023-01-28T01:43:55.847Z,1.10
2023-01-28T01:46:31.709Z,1.20
2023-01-28T01:49:05.374Z,1.20
2023-01-28T01:51:35.529Z,1.10
2023-01-28T01:54:05.339Z,1.10
2023-01-28T01:56:39.594Z,1.10
2023-01-28T01:59:12.126Z,1.00
2023-01-28T02:01:40.734Z,1.00
2023-01-28T02:04:14.859Z,0.90
2023-01-28T02:06:43.460Z,0.90
2023-01-28T02:09:24.769Z,0.90
2023-01-28T02:11:54.931Z,1.00
2023-01-28T02:14:30.828Z,1.00
2023-01-28T02:16:59.980Z,1.00
2023-01-28T02:19:34.887Z,1.00
2023-01-28T02:22:20.967Z,1.00
2023-01-28T02:25:22.397Z,0.90
2023-01-28T02:28:14.863Z,1.00
2023-01-28T02:30:50.906Z,1.00
2023-01-28T02:33:26.845Z,1.00
2023-01-28T02:35:55.911Z,0.90
2023-01-28T02:38:30.070Z,0.90
2023-01-28T02:41:06.871Z,0.90
2023-01-28T02:43:38.140Z,0.80
2023-01-28T02:46:35.776Z,0.90
2023-01-28T02:49:06.138Z,0.90
2023-01-28T02:51:46.921Z,0.90
2023-01-28T02:54:26.145Z,0.90
2023-01-28T02:57:00.515Z,0.90
2023-01-28T02:59:36.996Z,0.90
2023-01-28T03:02:16.536Z,0.90
2023-01-28T03:04:51.391Z,0.80
2023-01-28T03:07:20.863Z,0.80
2023-01-28T03:09:51.178Z,0.90
2023-01-28T03:12:40.927Z,0.90
2023-01-28T03:15:32.672Z,1.00
2023-01-28T03:18:22.237Z,0.90
2023-01-28T03:21:13.808Z,0.80
2023-01-28T03:24:07.205Z,0.80
2023-01-28T03:26:57.687Z,0.80
2023-01-28T03:29:44.855Z,0.80
2023-01-28T03:32:34.669Z,0.80
2023-01-28T03:35:20.676Z,0.80
2023-01-28T03:37:48.785Z,0.90
2023-01-28T03:40:22.913Z,0.90
2023-01-28T03:42:52.259Z,1.00
2023-01-28T03:45:30.777Z,0.90
2023-01-28T03:48:00.014Z,0.80
2023-01-28T03:50:27.940Z,0.80
2023-01-28T03:53:13.543Z,0.90
2023-01-28T03:55:53.250Z,0.90
2023-01-28T03:58:23.367Z,0.90
2023-01-28T04:00:52.327Z,0.90
2023-01-28T04:03:22.624Z,0.80
2023-01-28T04:06:04.734Z,0.90
2023-01-28T04:08:53.110Z,0.90
2023-01-28T04:11:44.171Z,0.90
2023-01-28T04:14:16.527Z,0.90
2023-01-28T04:17:11.054Z,0.90
2023-01-28T04:19:41.817Z,0.90
2023-01-28T04:22:12.500Z,0.80
2023-01-28T04:24:42.059Z,0.90
2023-01-28T04:27:10.286Z,0.90
2023-01-28T04:29:38.219Z,0.90
2023-01-28T04:32:35.948Z,0.90
2023-01-28T04:35:28.474Z,0.80
2023-01-28T04:38:08.645Z,0.80
2023-01-28T04:40:51.113Z,0.90
2023-01-28T04:43:28.025Z,1.00
2023-01-28T04:46:14.450Z,0.90
2023-01-28T04:48:49.257Z,0.90
2023-01-28T04:51:33.802Z,1.00
2023-01-28T04:54:14.172Z,0.90
2023-01-28T04:56:42.301Z,0.90
2023-01-28T04:59:11.051Z,0.90
2023-01-28T05:01:40.018Z,0.80
2023-01-28T05:04:09.814Z,0.80
2023-01-28T05:06:41.164Z,0.80
2023-01-28T05:09:16.332Z,0.80
2023-01-28T05:11:45.021Z,0.80
2023-01-28T05:14:14.347Z,0.90
2023-01-28T05:16:46.695Z,1.00
2023-01-28T05:19:15.981Z,0.90
2023-01-28T05:21:48.233Z,0.90
2023-01-28T05:24:25.023Z,0.80
2023-01-28T05:26:53.010Z,0.90
2023-01-28T05:29:20.956Z,0.90
2023-01-28T05:31:49.729Z,0.90
2023-01-28T05:34:18.122Z,0.80
2023-01-28T05:36:47.821Z,0.90
2023-01-28T05:39:29.769Z,0.90
2023-01-28T05:41:58.208Z,0.90
2023-01-28T05:44:26.236Z,0.80
2023-01-28T05:47:12.634Z,0.80
2023-01-28T05:49:52.653Z,0.80
2023-01-28T05:52:45.858Z,0.80
2023-01-28T05:55:22.255Z,0.80
2023-01-28T05:57:50.257Z,0.80
2023-01-28T06:00:21.622Z,0.80
2023-01-28T06:02:51.805Z,0.80
2023-01-28T06:05:20.993Z,0.80
2023-01-28T06:07:51.696Z,0.80
2023-01-28T06:10:19.640Z,0.90
2023-01-28T06:12:48.266Z,1.00
2023-01-28T06:15:35.755Z,1.00
2023-01-28T06:18:13.496Z,0.90
2023-01-28T06:20:43.123Z,0.90
2023-01-28T06:23:12.737Z,0.90
2023-01-28T06:25:40.732Z,0.90
2023-01-28T06:28:12.162Z,0.90
2023-01-28T06:30:40.141Z,0.90
2023-01-28T06:33:08.176Z,0.90
2023-01-28T06:35:37.099Z,1.00
2023-01-28T06:38:05.130Z,0.90
2023-01-28T06:40:34.438Z,0.90
2023-01-28T06:43:02.361Z,1.00
2023-01-28T06:45:30.279Z,0.90
2023-01-28T06:47:58.257Z,0.80
2023-01-28T06:50:26.187Z,0.80
2023-01-28T06:52:54.048Z,0.80
2023-01-28T06:55:21.920Z,0.90
2023-01-28T06:57:51.171Z,0.90
2023-01-28T07:00:20.165Z,0.90
2023-01-28T07:02:48.072Z,0.80
2023-01-28T07:05:16.124Z,0.80
2023-01-28T07:07:44.805Z,0.90
2023-01-28T07:10:13.244Z,0.80
2023-01-28T07:12:41.440Z,0.80
2023-01-28T07:15:11.927Z,0.80
2023-01-28T07:17:41.320Z,0.80
2023-01-28T07:20:11.500Z,0.80
2023-01-28T07:22:41.145Z,0.80
2023-01-28T07:25:10.753Z,0.80
2023-01-28T07:27:38.690Z,0.80
2023-01-28T07:30:07.919Z,0.90
2023-01-28T07:32:37.190Z,1.00
2023-01-28T07:35:05.523Z,0.90
2023-01-28T07:37:33.505Z,0.90
2023-01-28T07:40:01.534Z,0.90
2023-01-28T07:42:29.536Z,0.80
2023-01-28T07:44:57.617Z,0.80
2023-01-28T07:47:25.544Z,0.90
2023-01-28T07:49:54.841Z,0.90
2023-01-28T07:52:22.787Z,0.90
2023-01-28T07:54:50.723Z,0.90
2023-01-28T07:57:23.244Z,0.80
2023-01-28T07:59:51.728Z,0.80
2023-01-28T08:02:20.081Z,0.90
2023-01-28T08:04:48.184Z,0.80
2023-01-28T08:07:18.482Z,0.80
2023-01-28T08:09:46.391Z,0.80
2023-01-28T08:12:14.439Z,0.80
2023-01-28T08:14:42.386Z,0.80
2023-01-28T08:17:10.389Z,0.90
2023-01-28T08:19:38.267Z,0.90
2023-01-28T08:22:06.204Z,0.80
2023-01-28T08:24:35.493Z,0.80
2023-01-28T08:27:04.140Z,0.80
2023-01-28T08:29:32.056Z,0.80
2023-01-28T08:32:00.078Z,0.80
2023-01-28T08:34:27.977Z,0.90
2023-01-28T08:36:55.880Z,0.90
2023-01-28T08:39:23.821Z,0.90
2023-01-28T08:41:53.076Z,0.90
2023-01-28T08:44:21.045Z,0.90
2023-01-28T08:46:49.003Z,0.80
2023-01-28T08:49:16.884Z,0.90
2023-01-28T08:51:44.796Z,0.90
2023-01-28T08:54:12.783Z,0.90
2023-01-28T08:56:42.978Z,0.80
2023-01-28T08:59:12.574Z,0.80
2023-01-28T09:01:40.558Z,0.90
2023-01-28T09:04:08.517Z,0.90
2023-01-28T09:06:36.471Z,0.90
2023-01-28T09:09:04.593Z,0.90
2023-01-28T09:11:32.582Z,0.90
2023-01-28T09:14:00.665Z,0.90
2023-01-28T09:16:30.187Z,0.90
2023-01-28T09:18:58.230Z,0.90
2023-01-28T09:21:26.123Z,1.00
2023-01-28T09:23:55.784Z,0.90
2023-01-28T09:26:23.779Z,0.90
2023-01-28T09:28:51.714Z,0.90
2023-01-28T09:31:19.720Z,1.00
2023-01-28T09:33:54.825Z,0.90
2023-01-28T09:36:22.737Z,1.00
2023-01-28T09:38:50.775Z,0.90
2023-01-28T09:41:26.739Z,0.90
2023-01-28T09:44:09.176Z,0.90
2023-01-28T09:46:39.030Z,0.90
2023-01-28T09:49:20.074Z,0.90
2023-01-28T09:51:52.859Z,1.00
2023-01-28T09:54:29.222Z,1.00
2023-01-28T09:57:05.767Z,1.00
2023-01-28T09:59:36.619Z,1.00
2023-01-28T10:02:21.831Z,0.90
2023-01-28T10:04:59.589Z,0.90
2023-01-28T10:07:37.358Z,1.00
2023-01-28T10:10:14.404Z,0.90
2023-01-28T10:13:01.410Z,0.90
2023-01-28T10:16:08.664Z,1.00
2023-01-28T10:18:41.071Z,1.00
2023-01-28T10:21:16.699Z,1.00
2023-01-28T10:23:54.001Z,1.00
2023-01-28T10:26:25.017Z,1.00
2023-01-28T10:28:57.228Z,1.00
2023-01-28T10:31:31.281Z,1.00
2023-01-28T10:34:00.226Z,0.90
2023-01-28T10:36:30.162Z,0.90
2023-01-28T10:38:58.304Z,0.90
2023-01-28T10:41:26.886Z,1.00
2023-01-28T10:43:54.947Z,1.00
2023-01-28T10:46:28.033Z,1.00
2023-01-28T10:49:00.980Z,1.00
2023-01-28T10:51:35.687Z,1.10
2023-01-28T10:54:04.246Z,1.10
2023-01-28T10:56:35.720Z,1.10
2023-01-28T10:59:05.286Z,1.00
2023-01-28T11:01:45.491Z,1.00
2023-01-28T11:04:20.226Z,1.00
2023-01-28T11:06:58.331Z,1.00
2023-01-28T11:09:30.869Z,1.10
2023-01-28T11:11:59.666Z,1.10
2023-01-28T11:14:28.486Z,1.10
2023-01-28T11:16:59.037Z,1.10
2023-01-28T11:19:36.462Z,1.00
2023-01-28T11:22:05.810Z,1.10
2023-01-28T11:24:34.984Z,1.10
2023-01-28T11:27:16.696Z,1.00
2023-01-28T11:29:45.345Z,1.00
2023-01-28T11:32:20.817Z,1.10
2023-01-28T11:34:53.678Z,1.00
2023-01-28T11:37:24.716Z,1.10
2023-01-28T11:40:02.895Z,1.30
2023-01-28T11:42:32.038Z,1.20
2023-01-28T11:44:59.956Z,1.20
2023-01-28T11:47:42.193Z,1.20
2023-01-28T11:50:25.377Z,1.30
2023-01-28T11:53:08.932Z,1.20
2023-01-28T11:55:50.579Z,1.20
2023-01-28T11:58:24.940Z,1.10
2023-01-28T12:01:03.539Z,1.10
2023-01-28T12:03:53.768Z,1.10
2023-01-28T12:06:47.236Z,1.20
2023-01-28T12:09:26.540Z,1.20
2023-01-28T12:12:14.763Z,1.30
2023-01-28T12:15:05.035Z,1.30
2023-01-28T12:17:45.307Z,1.20
2023-01-28T12:20:20.799Z,1.30
2023-01-28T12:23:12.878Z,1.20
2023-01-28T12:25:54.892Z,1.20
2023-01-28T12:28:38.743Z,1.20
2023-01-28T12:31:21.566Z,1.10
2023-01-28T12:34:05.237Z,1.10
2023-01-28T12:36:45.226Z,1.10
2023-01-28T12:39:23.612Z,1.10
2023-01-28T12:42:00.448Z,1.10
2023-01-28T12:44:33.935Z,1.20
2023-01-28T12:47:07.063Z,1.30
2023-01-28T12:49:40.220Z,1.30
2023-01-28T12:52:15.432Z,1.30
2023-01-28T12:54:54.654Z,1.30
2023-01-28T12:57:27.376Z,1.30
2023-01-28T13:00:04.274Z,1.20
2023-01-28T13:02:39.255Z,1.20
2023-01-28T13:05:12.909Z,1.10
2023-01-28T13:07:45.099Z,1.10
2023-01-28T13:10:20.791Z,1.10
2023-01-28T13:12:51.003Z,1.10
2023-01-28T13:15:20.859Z,1.20
2023-01-28T13:17:57.803Z,1.10
2023-01-28T13:20:36.619Z,1.20
2023-01-28T13:23:07.516Z,1.20
2023-01-28T13:25:36.222Z,1.20
2023-01-28T13:28:07.502Z,1.30
2023-01-28T13:30:47.991Z,1.30
2023-01-28T13:33:31.337Z,1.30
2023-01-28T13:36:02.567Z,1.20
2023-01-28T13:38:31.733Z,1.20
2023-01-28T13:41:06.279Z,1.10
2023-01-28T13:43:41.496Z,1.10
2023-01-28T13:46:12.051Z,1.10
2023-01-28T13:48:44.029Z,1.20
2023-01-28T13:51:20.477Z,1.10
2023-01-28T13:53:54.640Z,1.10
2023-01-28T13:56:26.617Z,1.10
2023-01-28T13:59:26.803Z,1.20
2023-01-28T14:02:34.623Z,1.10
2023-01-28T14:05:33.015Z,1.10
2023-01-28T14:08:36.273Z,1.10
2023-01-28T14:11:18.596Z,1.10
2023-01-28T14:14:05.394Z,1.10
2023-01-28T14:16:43.096Z,1.10
2023-01-28T14:19:14.399Z,1.00
2023-01-28T14:21:42.610Z,1.00
2023-01-28T14:24:17.854Z,1.00
2023-01-28T14:26:56.882Z,1.00
2023-01-28T14:29:39.591Z,1.00
2023-01-28T14:32:13.905Z,1.00
2023-01-28T14:34:43.604Z,0.90
2023-01-28T14:37:15.138Z,0.90
2023-01-28T14:39:46.995Z,0.90
2023-01-28T14:42:21.350Z,0.90
2023-01-28T14:44:58.273Z,0.90
2023-01-28T14:47:48.852Z,0.90
2023-01-28T14:50:34.415Z,1.00
2023-01-28T14:53:26.338Z,1.00
2023-01-28T14:56:00.143Z,0.90
2023-01-28T14:58:32.617Z,0.90
2023-01-28T15:01:01.902Z,0.80
2023-01-28T15:03:31.802Z,0.90
2023-01-28T15:06:05.129Z,0.90
2023-01-28T15:08:33.322Z,0.90
2023-01-28T15:11:03.096Z,0.90
2023-01-28T15:13:35.140Z,0.90
2023-01-28T15:16:03.215Z,0.90
2023-01-28T15:18:36.185Z,0.90
2023-01-28T15:21:05.438Z,0.90
2023-01-28T15:23:36.279Z,0.90
2023-01-28T15:26:07.256Z,0.90
2023-01-28T15:28:38.424Z,0.90
2023-01-28T15:31:07.199Z,0.90
2023-01-28T15:33:36.604Z,0.90
2023-01-28T15:36:06.300Z,0.90
2023-01-28T15:38:34.308Z,0.80
2023-01-28T15:41:06.375Z,0.80
2023-01-28T15:43:37.277Z,0.80
2023-01-28T15:46:11.441Z,0.80
2023-01-28T15:48:43.625Z,0.80
2023-01-28T15:51:21.055Z,0.80
2023-01-28T15:53:52.953Z,0.80
2023-01-28T15:56:27.655Z,0.80
2023-01-28T15:58:56.266Z,0.90
2023-01-28T16:01:25.538Z,0.80
2023-01-28T16:04:06.530Z,0.80
2023-01-28T16:06:38.305Z,0.70
2023-01-28T16:09:08.325Z,0.70
2023-01-28T16:11:44.540Z,0.80
2023-01-28T16:14:23.779Z,0.80
2023-01-28T16:16:52.496Z,0.80
2023-01-28T16:19:34.182Z,0.80
2023-01-28T16:22:02.855Z,0.70
2023-01-28T16:24:33.246Z,0.80
2023-01-28T16:27:02.959Z,0.80
2023-01-28T16:29:32.635Z,0.70
2023-01-28T16:32:01.338Z,0.70
2023-01-28T16:34:30.781Z,0.70
2023-01-28T16:37:00.064Z,0.70
2023-01-28T16:39:28.279Z,0.60
2023-01-28T16:41:56.901Z,0.60
2023-01-28T16:44:24.913Z,0.60
2023-01-28T16:46:52.902Z,0.60
2023-01-28T16:49:21.268Z,0.60
2023-01-28T16:51:50.629Z,0.60
2023-01-28T16:54:18.816Z,0.60
2023-01-28T16:56:47.219Z,0.60
2023-01-28T16:59:17.250Z,0.60
2023-01-28T17:01:45.711Z,0.50
2023-01-28T17:04:13.898Z,0.60
2023-01-28T17:06:44.321Z,0.60
2023-01-28T17:09:15.686Z,0.50
2023-01-28T17:11:43.895Z,0.50
2023-01-28T17:14:12.659Z,0.60
2023-01-28T17:16:40.793Z,0.60
2023-01-28T17:19:08.839Z,0.60
2023-01-28T17:21:36.882Z,0.60
2023-01-28T17:24:05.942Z,0.50
2023-01-28T17:26:36.599Z,0.50
2023-01-28T17:29:05.786Z,0.50
2023-01-28T17:31:34.167Z,0.60
2023-01-28T17:34:02.552Z,0.70
2023-01-28T17:36:30.624Z,0.60
2023-01-28T17:38:58.618Z,0.70
2023-01-28T17:41:26.711Z,0.60
2023-01-28T17:43:57.151Z,0.60
2023-01-28T17:46:26.383Z,0.60
2023-01-28T17:48:54.872Z,0.60
2023-01-28T17:51:23.130Z,0.50
2023-01-28T17:53:53.378Z,0.50
2023-01-28T17:56:23.777Z,0.50
2023-01-28T17:58:52.793Z,0.50
2023-01-28T18:01:23.016Z,0.50
2023-01-28T18:03:51.046Z,0.50
2023-01-28T18:06:19.811Z,0.50
2023-01-28T18:08:48.377Z,0.50
2023-01-28T18:11:18.256Z,0.50
2023-01-28T18:13:46.243Z,0.50
2023-01-28T18:16:18.002Z,0.50
2023-01-28T18:18:47.807Z,0.50
2023-01-28T18:21:22.746Z,0.50
2023-01-28T18:23:53.866Z,0.50
2023-01-28T18:26:23.803Z,0.40
2023-01-28T18:28:52.029Z,0.40
2023-01-28T18:31:20.462Z,0.40
2023-01-28T18:33:49.999Z,0.40
2023-01-28T18:36:18.021Z,0.40
2023-01-28T18:38:46.492Z,0.50
2023-01-28T18:41:15.577Z,0.50
2023-01-28T18:43:43.927Z,0.50
2023-01-28T18:46:14.492Z,0.50
2023-01-28T18:48:42.470Z,0.40
2023-01-28T18:51:28.410Z,0.40
2023-01-28T18:53:59.536Z,0.40
2023-01-28T18:56:27.971Z,0.30
2023-01-28T18:58:57.250Z,0.40
2023-01-28T19:01:25.591Z,0.30
2023-01-28T19:03:54.787Z,0.30
2023-01-28T19:06:24.805Z,0.30
2023-01-28T19:08:54.466Z,0.30
2023-01-28T19:11:23.259Z,0.40
2023-01-28T19:13:51.640Z,0.40
2023-01-28T19:16:20.364Z,0.30
2023-01-28T19:18:54.669Z,0.20
2023-01-28T19:21:25.242Z,0.20
2023-01-28T19:23:57.582Z,0.20
2023-01-28T19:26:26.902Z,0.20
2023-01-28T19:28:55.056Z,0.20
2023-01-28T19:31:24.657Z,0.20
2023-01-28T19:33:56.255Z,0.20
2023-01-28T19:36:27.200Z,0.20
2023-01-28T19:38:58.237Z,0.20
2023-01-28T19:41:26.541Z,0.20
2023-01-28T19:43:54.491Z,0.20
2023-01-28T19:46:22.715Z,0.20
2023-01-28T19:48:50.865Z,0.10
2023-01-28T19:51:19.141Z,0.10
2023-01-28T19:53:51.316Z,0.10
2023-01-28T19:56:20.889Z,0.10
2023-01-28T19:58:48.988Z,0.10
2023-01-28T20:01:19.646Z,0.10
2023-01-28T20:03:52.750Z,0.10
2023-01-28T20:06:20.931Z,0.10
2023-01-28T20:08:54.709Z,0.10
2023-01-28T20:11:23.285Z,0.10
2023-01-28T20:13:52.661Z,0.10
2023-01-28T20:16:23.229Z,0.10
2023-01-28T20:18:52.004Z,0.10
2023-01-28T20:21:20.712Z,0.10
2023-01-28T20:23:49.710Z,0.10
2023-01-28T20:26:21.568Z,0.10
2023-01-28T20:28:49.921Z,0.10
2023-01-28T20:31:18.846Z,0.10
2023-01-28T20:33:47.214Z,0.10
2023-01-28T20:36:15.657Z,0.10
2023-01-28T20:38:45.217Z,0.10
2023-01-28T20:41:15.884Z,0.10
2023-01-28T20:43:46.227Z,0.00
2023-01-28T20:46:15.700Z,0.00
2023-01-28T20:48:44.135Z,0.00
2023-01-28T20:51:15.175Z,-0.10
2023-01-28T20:53:45.637Z,-0.10
2023-01-28T20:56:16.010Z,-0.10
2023-01-28T20:58:45.959Z,-0.10
2023-01-28T21:01:21.000Z,-0.10
2023-01-28T21:03:49.443Z,0.00
2023-01-28T21:06:18.263Z,0.00
2023-01-28T21:08:46.917Z,0.10
2023-01-28T21:11:15.479Z,0.00
2023-01-28T21:13:44.719Z,-0.10
2023-01-28T21:16:12.864Z,-0.10
2023-01-28T21:18:41.023Z,-0.10
2023-01-28T21:21:14.738Z,-0.10
2023-01-28T21:23:42.842Z,-0.10
2023-01-28T21:26:11.670Z,-0.10
2023-01-28T21:28:39.741Z,-0.20
2023-01-28T21:31:10.728Z,-0.10
2023-01-28T21:33:39.227Z,-0.20
2023-01-28T21:36:12.273Z,-0.20
2023-01-28T21:38:40.625Z,-0.20
2023-01-28T21:41:09.122Z,-0.10
2023-01-28T21:43:37.377Z,-0.10
2023-01-28T21:46:06.077Z,-0.20
2023-01-28T21:48:35.466Z,-0.20
2023-01-28T21:51:25.054Z,-0.20
2023-01-28T21:53:53.189Z,-0.20
2023-01-28T21:56:21.759Z,-0.30
2023-01-28T21:59:07.957Z,-0.30
2023-01-28T22:01:35.996Z,-0.20
2023-01-28T22:04:05.636Z,-0.30
2023-01-28T22:06:33.629Z,-0.30
2023-01-28T22:09:02.405Z,-0.30
2023-01-28T22:11:30.389Z,-0.30
2023-01-28T22:13:58.334Z,-0.30
2023-01-28T22:16:26.301Z,-0.30
2023-01-28T22:18:54.224Z,-0.30
2023-01-28T22:21:23.556Z,-0.30
2023-01-28T22:23:51.446Z,-0.30
2023-01-28T22:26:19.416Z,-0.30
2023-01-28T22:28:47.403Z,-0.40
2023-01-28T22:31:17.123Z,-0.40
2023-01-28T22:33:45.512Z,-0.40
2023-01-28T22:36:15.324Z,-0.40
2023-01-28T22:38:46.354Z,-0.40
2023-01-28T22:41:18.936Z,-0.40
2023-01-28T22:43:47.931Z,-0.40
2023-01-28T22:46:16.900Z,-0.40
2023-01-28T22:48:45.360Z,-0.40
2023-01-28T22:51:17.324Z,-0.40
2023-01-28T22:53:48.062Z,-0.40
2023-01-28T22:56:19.514Z,-0.40
2023-01-28T22:58:47.615Z,-0.40
2023-01-28T23:01:18.264Z,-0.40
2023-01-28T23:03:47.728Z,-0.50
2023-01-28T23:06:17.381Z,-0.50
2023-01-28T23:08:47.419Z,-0.50
2023-01-28T23:11:25.157Z,-0.50
2023-01-28T23:14:11.312Z,-0.50
2023-01-28T23:16:56.879Z,-0.50
2023-01-28T23:19:42.769Z,-0.50
2023-01-28T23:22:34.339Z,-0.50
2023-01-28T23:25:03.694Z,-0.50
2023-01-28T23:27:31.706Z,-0.50
2023-01-28T23:29:59.629Z,-0.50
2023-01-28T23:32:27.799Z,-0.50
2023-01-28T23:34:55.730Z,-0.50
2023-01-28T23:37:23.661Z,-0.50
2023-01-28T23:39:51.519Z,-0.50
2023-01-28T23:42:23.483Z,-0.50
2023-01-28T23:44:51.429Z,-0.50
2023-01-28T23:47:19.696Z,-0.50
2023-01-28T23:49:47.747Z,-0.50
2023-01-28T23:52:15.664Z,-0.60
2023-01-28T23:54:43.540Z,-0.60
2023-01-28T23:57:11.505Z,-0.60
2023-01-28T23:59:40.811Z,-0.60
